Beaumont, California
Current Conditions -  °F | °C
As of 2:58 PM on Thursday 23 Oct 2014 (Local Time) from KRIV Reporting Station
Clear Clear  
Wind Chill: 90°   Ceiling: Unl
Heat Index: 90°   Visibility: 10mi
Dew Point: 35°   Wind: 8mph
Humidity: 14%   Direction: 290°WNW
Pressure: 29.95"   Gusts: NA
Location:  33.93°N, 116.97°W
Report Text: KRIV 232158Z AUTO 29007KT 10SM CLR 32/01 A2995 RMK AO2 SLP131 T03220014
Loading
Personal Weather Stations






























Interactive Weather Map New forecast layout! Learn more

10-Day Weather Forecast

Advertisements
Track Severe Weather on mobile